sensor_id;sensor_type;location;lat;lon;timestamp;temperature;humidity
33715;DHT22;20043;50.998;4.754;2023-11-22T00:00:03;7.80;99.90
33715;DHT22;20043;50.998;4.754;2023-11-22T00:02:29;7.90;99.90
33715;DHT22;20043;50.998;4.754;2023-11-22T00:04:55;7.80;99.90
33715;DHT22;20043;50.998;4.754;2023-11-22T00:07:21;7.70;99.90
33715;DHT22;20043;50.998;4.754;2023-11-22T00:09:47;7.80;99.90
33715;DHT22;20043;50.998;4.754;2023-11-22T00:12:13;7.70;99.90
33715;DHT22;20043;50.998;4.754;2023-11-22T00:14:38;7.80;99.90
33715;DHT22;20043;50.998;4.754;2023-11-22T00:17:04;7.80;99.90
33715;DHT22;20043;50.998;4.754;2023-11-22T00:19:30;7.70;99.90
33715;DHT22;20043;50.998;4.754;2023-11-22T00:21:56;7.60;99.90
33715;DHT22;20043;50.998;4.754;2023-11-22T00:24:21;7.60;99.90
33715;DHT22;20043;50.998;4.754;2023-11-22T00:26:47;7.70;99.90
33715;DHT22;20043;50.998;4.754;2023-11-22T00:29:13;7.70;99.90
33715;DHT22;20043;50.998;4.754;2023-11-22T00:31:38;7.60;99.90
33715;DHT22;20043;50.998;4.754;2023-11-22T00:34:05;7.60;99.90
33715;DHT22;20043;50.998;4.754;2023-11-22T00:36:32;7.60;99.90
33715;DHT22;20043;50.998;4.754;2023-11-22T00:38:57;7.60;99.90
33715;DHT22;20043;50.998;4.754;2023-11-22T00:41:23;7.50;99.90
33715;DHT22;20043;50.998;4.754;2023-11-22T00:43:48;7.50;99.90
33715;DHT22;20043;50.998;4.754;2023-11-22T00:46:14;7.40;99.90
33715;DHT22;20043;50.998;4.754;2023-11-22T00:48:40;7.40;99.90
33715;DHT22;20043;50.998;4.754;2023-11-22T00:51:05;7.30;99.90
33715;DHT22;20043;50.998;4.754;2023-11-22T00:53:35;7.20;99.90
33715;DHT22;20043;50.998;4.754;2023-11-22T00:56:02;7.10;99.90
33715;DHT22;20043;50.998;4.754;2023-11-22T00:58:28;7.20;99.90
33715;DHT22;20043;50.998;4.754;2023-11-22T01:00:53;7.20;99.90
33715;DHT22;20043;50.998;4.754;2023-11-22T01:03:19;7.30;99.90
33715;DHT22;20043;50.998;4.754;2023-11-22T01:05:44;7.20;99.90
33715;DHT22;20043;50.998;4.754;2023-11-22T01:08:12;7.20;99.90
33715;DHT22;20043;50.998;4.754;2023-11-22T01:10:39;7.20;99.90
33715;DHT22;20043;50.998;4.754;2023-11-22T01:13:04;7.10;99.90
33715;DHT22;20043;50.998;4.754;2023-11-22T01:15:30;7.10;99.90
33715;DHT22;20043;50.998;4.754;2023-11-22T01:17:56;7.20;99.90
33715;DHT22;20043;50.998;4.754;2023-11-22T01:20:21;7.20;99.90
33715;DHT22;20043;50.998;4.754;2023-11-22T01:22:49;7.20;99.90
33715;DHT22;20043;50.998;4.754;2023-11-22T01:25:15;7.10;99.90
33715;DHT22;20043;50.998;4.754;2023-11-22T01:27:40;7.10;99.90
33715;DHT22;20043;50.998;4.754;2023-11-22T01:30:06;6.90;99.90
33715;DHT22;20043;50.998;4.754;2023-11-22T01:32:41;6.80;99.90
33715;DHT22;20043;50.998;4.754;2023-11-22T01:35:07;6.70;99.90
33715;DHT22;20043;50.998;4.754;2023-11-22T01:37:33;6.70;99.90
33715;DHT22;20043;50.998;4.754;2023-11-22T01:39:58;6.70;99.90
33715;DHT22;20043;50.998;4.754;2023-11-22T01:42:24;6.50;99.90
33715;DHT22;20043;50.998;4.754;2023-11-22T01:44:51;6.50;99.90
33715;DHT22;20043;50.998;4.754;2023-11-22T01:47:18;6.50;99.90
33715;DHT22;20043;50.998;4.754;2023-11-22T01:49:44;6.50;99.90
33715;DHT22;20043;50.998;4.754;2023-11-22T01:52:10;6.30;99.90
33715;DHT22;20043;50.998;4.754;2023-11-22T01:54:36;6.40;99.90
33715;DHT22;20043;50.998;4.754;2023-11-22T01:57:02;6.30;99.90
33715;DHT22;20043;50.998;4.754;2023-11-22T01:59:29;6.40;99.90
33715;DHT22;20043;50.998;4.754;2023-11-22T02:01:56;6.40;99.90
33715;DHT22;20043;50.998;4.754;2023-11-22T02:04:22;6.50;99.90
33715;DHT22;20043;50.998;4.754;2023-11-22T02:06:48;6.40;99.90
33715;DHT22;20043;50.998;4.754;2023-11-22T02:09:15;6.40;99.90
33715;DHT22;20043;50.998;4.754;2023-11-22T02:11:44;6.40;99.90
33715;DHT22;20043;50.998;4.754;2023-11-22T02:14:14;6.40;99.90
33715;DHT22;20043;50.998;4.754;2023-11-22T02:16:40;6.40;99.90
33715;DHT22;20043;50.998;4.754;2023-11-22T02:19:08;6.40;99.90
33715;DHT22;20043;50.998;4.754;2023-11-22T02:21:39;6.40;99.90
33715;DHT22;20043;50.998;4.754;2023-11-22T02:24:05;6.30;99.90
33715;DHT22;20043;50.998;4.754;2023-11-22T02:26:30;6.40;99.90
33715;DHT22;20043;50.998;4.754;2023-11-22T02:28:56;6.40;99.90
33715;DHT22;20043;50.998;4.754;2023-11-22T02:31:22;6.40;99.90
33715;DHT22;20043;50.998;4.754;2023-11-22T02:33:49;6.50;99.90
33715;DHT22;20043;50.998;4.754;2023-11-22T02:36:16;6.50;99.90
33715;DHT22;20043;50.998;4.754;2023-11-22T02:38:41;6.40;99.90
33715;DHT22;20043;50.998;4.754;2023-11-22T02:41:09;6.30;99.90
33715;DHT22;20043;50.998;4.754;2023-11-22T02:43:35;6.30;99.90
33715;DHT22;20043;50.998;4.754;2023-11-22T02:46:01;6.20;99.90
33715;DHT22;20043;50.998;4.754;2023-11-22T02:48:28;6.30;99.90
33715;DHT22;20043;50.998;4.754;2023-11-22T02:50:54;6.30;99.90
33715;DHT22;20043;50.998;4.754;2023-11-22T02:53:19;6.40;99.90
33715;DHT22;20043;50.998;4.754;2023-11-22T02:55:45;6.50;99.90
33715;DHT22;20043;50.998;4.754;2023-11-22T02:58:11;6.50;99.90
33715;DHT22;20043;50.998;4.754;2023-11-22T03:00:39;6.30;99.90
33715;DHT22;20043;50.998;4.754;2023-11-22T03:03:06;6.30;99.90
33715;DHT22;20043;50.998;4.754;2023-11-22T03:05:35;6.30;99.90
33715;DHT22;20043;50.998;4.754;2023-11-22T03:08:03;6.30;99.90
33715;DHT22;20043;50.998;4.754;2023-11-22T03:10:28;6.40;99.90
33715;DHT22;20043;50.998;4.754;2023-11-22T03:12:55;6.50;99.90
33715;DHT22;20043;50.998;4.754;2023-11-22T03:15:21;6.50;99.90
33715;DHT22;20043;50.998;4.754;2023-11-22T03:17:46;6.30;99.90
33715;DHT22;20043;50.998;4.754;2023-11-22T03:20:13;6.10;99.90
33715;DHT22;20043;50.998;4.754;2023-11-22T03:22:41;6.00;99.90
33715;DHT22;20043;50.998;4.754;2023-11-22T03:25:10;5.90;99.90
33715;DHT22;20043;50.998;4.754;2023-11-22T03:27:37;5.90;99.90
33715;DHT22;20043;50.998;4.754;2023-11-22T03:30:04;5.90;99.90
33715;DHT22;20043;50.998;4.754;2023-11-22T03:32:29;6.00;99.90
33715;DHT22;20043;50.998;4.754;2023-11-22T03:34:55;6.10;99.90
33715;DHT22;20043;50.998;4.754;2023-11-22T03:37:22;6.00;99.90
33715;DHT22;20043;50.998;4.754;2023-11-22T03:39:48;5.90;99.90
33715;DHT22;20043;50.998;4.754;2023-11-22T03:42:16;5.80;99.90
33715;DHT22;20043;50.998;4.754;2023-11-22T03:44:42;5.70;99.90
33715;DHT22;20043;50.998;4.754;2023-11-22T03:47:10;5.60;99.90
33715;DHT22;20043;50.998;4.754;2023-11-22T03:49:39;5.70;99.90
33715;DHT22;20043;50.998;4.754;2023-11-22T03:52:05;5.40;99.90
33715;DHT22;20043;50.998;4.754;2023-11-22T03:54:31;5.40;99.90
33715;DHT22;20043;50.998;4.754;2023-11-22T03:56:58;5.30;99.90
33715;DHT22;20043;50.998;4.754;2023-11-22T03:59:24;5.30;99.90
33715;DHT22;20043;50.998;4.754;2023-11-22T04:01:49;5.50;99.90
33715;DHT22;20043;50.998;4.754;2023-11-22T04:04:16;5.60;99.90
33715;DHT22;20043;50.998;4.754;2023-11-22T04:06:42;5.60;99.90
33715;DHT22;20043;50.998;4.754;2023-11-22T04:09:07;5.60;99.90
33715;DHT22;20043;50.998;4.754;2023-11-22T04:11:34;5.60;99.90
33715;DHT22;20043;50.998;4.754;2023-11-22T04:14:00;5.70;99.90
33715;DHT22;20043;50.998;4.754;2023-11-22T04:16:25;5.50;99.90
33715;DHT22;20043;50.998;4.754;2023-11-22T04:18:51;5.40;99.90
33715;DHT22;20043;50.998;4.754;2023-11-22T04:21:17;5.30;99.90
33715;DHT22;20043;50.998;4.754;2023-11-22T04:23:42;5.00;99.90
33715;DHT22;20043;50.998;4.754;2023-11-22T04:26:08;5.00;99.90
33715;DHT22;20043;50.998;4.754;2023-11-22T04:28:34;5.00;99.90
33715;DHT22;20043;50.998;4.754;2023-11-22T04:31:00;4.90;99.90
33715;DHT22;20043;50.998;4.754;2023-11-22T04:33:25;4.80;99.90
33715;DHT22;20043;50.998;4.754;2023-11-22T04:35:53;5.00;99.90
33715;DHT22;20043;50.998;4.754;2023-11-22T04:38:19;5.20;99.90
33715;DHT22;20043;50.998;4.754;2023-11-22T04:40:45;5.30;99.90
33715;DHT22;20043;50.998;4.754;2023-11-22T04:43:11;5.50;99.90
33715;DHT22;20043;50.998;4.754;2023-11-22T04:45:36;5.60;99.90
33715;DHT22;20043;50.998;4.754;2023-11-22T04:48:03;5.70;99.90
33715;DHT22;20043;50.998;4.754;2023-11-22T04:50:29;5.70;99.90
33715;DHT22;20043;50.998;4.754;2023-11-22T04:52:55;5.80;99.90
33715;DHT22;20043;50.998;4.754;2023-11-22T04:55:20;5.80;99.90
33715;DHT22;20043;50.998;4.754;2023-11-22T04:57:48;5.80;99.90
33715;DHT22;20043;50.998;4.754;2023-11-22T05:00:14;5.40;99.90
33715;DHT22;20043;50.998;4.754;2023-11-22T05:02:40;5.10;99.90
33715;DHT22;20043;50.998;4.754;2023-11-22T05:05:07;5.30;99.90
33715;DHT22;20043;50.998;4.754;2023-11-22T05:07:39;5.60;99.90
33715;DHT22;20043;50.998;4.754;2023-11-22T05:10:05;5.60;99.90
33715;DHT22;20043;50.998;4.754;2023-11-22T05:12:31;5.60;99.90
33715;DHT22;20043;50.998;4.754;2023-11-22T05:14:58;5.70;99.90
33715;DHT22;20043;50.998;4.754;2023-11-22T05:17:23;5.60;99.90
33715;DHT22;20043;50.998;4.754;2023-11-22T05:19:49;5.50;99.90
33715;DHT22;20043;50.998;4.754;2023-11-22T05:22:16;5.60;99.90
33715;DHT22;20043;50.998;4.754;2023-11-22T05:24:41;5.70;99.90
33715;DHT22;20043;50.998;4.754;2023-11-22T05:27:08;5.40;99.90
33715;DHT22;20043;50.998;4.754;2023-11-22T05:29:34;5.40;99.90
33715;DHT22;20043;50.998;4.754;2023-11-22T05:32:00;5.40;99.90
33715;DHT22;20043;50.998;4.754;2023-11-22T05:34:25;5.30;99.90
33715;DHT22;20043;50.998;4.754;2023-11-22T05:36:52;5.20;99.90
33715;DHT22;20043;50.998;4.754;2023-11-22T05:39:18;5.30;99.90
33715;DHT22;20043;50.998;4.754;2023-11-22T05:41:43;5.50;99.90
33715;DHT22;20043;50.998;4.754;2023-11-22T05:44:09;5.50;99.90
33715;DHT22;20043;50.998;4.754;2023-11-22T05:46:35;5.50;99.90
33715;DHT22;20043;50.998;4.754;2023-11-22T05:49:00;5.30;99.90
33715;DHT22;20043;50.998;4.754;2023-11-22T05:51:26;5.40;99.90
33715;DHT22;20043;50.998;4.754;2023-11-22T05:53:52;5.40;99.90
33715;DHT22;20043;50.998;4.754;2023-11-22T05:56:17;5.60;99.90
33715;DHT22;20043;50.998;4.754;2023-11-22T05:58:44;5.70;99.90
33715;DHT22;20043;50.998;4.754;2023-11-22T06:01:10;5.80;99.90
33715;DHT22;20043;50.998;4.754;2023-11-22T06:03:37;5.90;99.90
33715;DHT22;20043;50.998;4.754;2023-11-22T06:06:05;6.10;99.90
33715;DHT22;20043;50.998;4.754;2023-11-22T06:08:30;6.30;99.90
33715;DHT22;20043;50.998;4.754;2023-11-22T06:10:56;6.50;99.90
33715;DHT22;20043;50.998;4.754;2023-11-22T06:13:23;6.70;99.90
33715;DHT22;20043;50.998;4.754;2023-11-22T06:15:49;6.70;99.90
33715;DHT22;20043;50.998;4.754;2023-11-22T06:18:15;6.80;99.90
33715;DHT22;20043;50.998;4.754;2023-11-22T06:20:41;6.70;99.90
33715;DHT22;20043;50.998;4.754;2023-11-22T06:23:07;6.70;99.90
33715;DHT22;20043;50.998;4.754;2023-11-22T06:25:32;6.60;99.90
33715;DHT22;20043;50.998;4.754;2023-11-22T06:27:58;6.70;99.90
33715;DHT22;20043;50.998;4.754;2023-11-22T06:30:24;6.70;99.90
33715;DHT22;20043;50.998;4.754;2023-11-22T06:32:50;6.60;99.90
33715;DHT22;20043;50.998;4.754;2023-11-22T06:35:16;6.60;99.90
33715;DHT22;20043;50.998;4.754;2023-11-22T06:37:43;6.60;99.90
33715;DHT22;20043;50.998;4.754;2023-11-22T06:40:10;6.50;99.90
33715;DHT22;20043;50.998;4.754;2023-11-22T06:42:38;6.40;99.90
33715;DHT22;20043;50.998;4.754;2023-11-22T06:45:05;6.60;99.90
33715;DHT22;20043;50.998;4.754;2023-11-22T06:47:32;6.60;99.90
33715;DHT22;20043;50.998;4.754;2023-11-22T06:49:57;6.70;99.90
33715;DHT22;20043;50.998;4.754;2023-11-22T06:52:23;6.50;99.90
33715;DHT22;20043;50.998;4.754;2023-11-22T06:54:49;6.60;99.90
33715;DHT22;20043;50.998;4.754;2023-11-22T06:57:15;6.50;99.90
33715;DHT22;20043;50.998;4.754;2023-11-22T06:59:41;6.60;99.90
33715;DHT22;20043;50.998;4.754;2023-11-22T07:02:07;6.70;99.90
33715;DHT22;20043;50.998;4.754;2023-11-22T07:04:33;6.90;99.90
33715;DHT22;20043;50.998;4.754;2023-11-22T07:06:58;6.60;99.90
33715;DHT22;20043;50.998;4.754;2023-11-22T07:09:24;6.70;99.90
33715;DHT22;20043;50.998;4.754;2023-11-22T07:11:50;6.80;99.90
33715;DHT22;20043;50.998;4.754;2023-11-22T07:14:17;7.00;99.90
33715;DHT22;20043;50.998;4.754;2023-11-22T07:16:42;7.10;99.90
33715;DHT22;20043;50.998;4.754;2023-11-22T07:19:08;7.30;99.90
33715;DHT22;20043;50.998;4.754;2023-11-22T07:21:34;7.40;99.90
33715;DHT22;20043;50.998;4.754;2023-11-22T07:24:04;7.40;99.90
33715;DHT22;20043;50.998;4.754;2023-11-22T07:26:32;7.50;99.90
33715;DHT22;20043;50.998;4.754;2023-11-22T07:28:58;7.50;99.90
33715;DHT22;20043;50.998;4.754;2023-11-22T07:31:24;7.30;99.90
33715;DHT22;20043;50.998;4.754;2023-11-22T07:33:50;7.10;99.90
33715;DHT22;20043;50.998;4.754;2023-11-22T07:36:16;7.00;99.90
33715;DHT22;20043;50.998;4.754;2023-11-22T07:38:42;7.10;99.90
33715;DHT22;20043;50.998;4.754;2023-11-22T07:41:11;7.20;99.90
33715;DHT22;20043;50.998;4.754;2023-11-22T07:43:36;7.10;99.90
33715;DHT22;20043;50.998;4.754;2023-11-22T07:46:08;7.10;99.90
33715;DHT22;20043;50.998;4.754;2023-11-22T07:48:41;7.20;99.90
33715;DHT22;20043;50.998;4.754;2023-11-22T07:51:07;7.40;99.90
33715;DHT22;20043;50.998;4.754;2023-11-22T07:53:34;7.40;99.90
33715;DHT22;20043;50.998;4.754;2023-11-22T07:56:00;7.40;99.90
33715;DHT22;20043;50.998;4.754;2023-11-22T07:58:33;7.40;99.90
33715;DHT22;20043;50.998;4.754;2023-11-22T08:00:59;7.30;99.90
33715;DHT22;20043;50.998;4.754;2023-11-22T08:03:26;7.40;99.90
33715;DHT22;20043;50.998;4.754;2023-11-22T08:05:58;7.50;99.90
33715;DHT22;20043;50.998;4.754;2023-11-22T08:08:25;7.50;99.90
33715;DHT22;20043;50.998;4.754;2023-11-22T08:10:51;7.50;99.90
33715;DHT22;20043;50.998;4.754;2023-11-22T08:13:22;7.60;99.90
33715;DHT22;20043;50.998;4.754;2023-11-22T08:15:48;7.60;99.90
33715;DHT22;20043;50.998;4.754;2023-11-22T08:18:20;7.60;99.90
33715;DHT22;20043;50.998;4.754;2023-11-22T08:20:47;7.60;99.90
33715;DHT22;20043;50.998;4.754;2023-11-22T08:23:13;7.80;99.90
33715;DHT22;20043;50.998;4.754;2023-11-22T08:25:40;7.90;99.90
33715;DHT22;20043;50.998;4.754;2023-11-22T08:28:06;7.80;99.90
33715;DHT22;20043;50.998;4.754;2023-11-22T08:30:34;7.80;99.90
33715;DHT22;20043;50.998;4.754;2023-11-22T08:33:02;7.80;99.90
33715;DHT22;20043;50.998;4.754;2023-11-22T08:35:28;7.90;99.90
33715;DHT22;20043;50.998;4.754;2023-11-22T08:37:54;7.90;99.90
33715;DHT22;20043;50.998;4.754;2023-11-22T08:40:22;8.00;99.90
33715;DHT22;20043;50.998;4.754;2023-11-22T08:42:48;7.90;99.90
33715;DHT22;20043;50.998;4.754;2023-11-22T08:45:14;7.50;99.90
33715;DHT22;20043;50.998;4.754;2023-11-22T08:47:40;7.20;99.90
33715;DHT22;20043;50.998;4.754;2023-11-22T08:50:07;7.20;99.90
33715;DHT22;20043;50.998;4.754;2023-11-22T08:52:34;7.40;99.90
33715;DHT22;20043;50.998;4.754;2023-11-22T08:54:59;7.50;99.90
33715;DHT22;20043;50.998;4.754;2023-11-22T08:57:26;7.60;99.90
33715;DHT22;20043;50.998;4.754;2023-11-22T08:59:52;7.70;99.90
33715;DHT22;20043;50.998;4.754;2023-11-22T09:02:19;7.60;99.90
33715;DHT22;20043;50.998;4.754;2023-11-22T09:04:47;7.30;99.90
33715;DHT22;20043;50.998;4.754;2023-11-22T09:07:13;7.00;99.90
33715;DHT22;20043;50.998;4.754;2023-11-22T09:09:40;6.90;99.90
33715;DHT22;20043;50.998;4.754;2023-11-22T09:12:07;6.70;99.90
33715;DHT22;20043;50.998;4.754;2023-11-22T09:14:41;6.70;99.90
33715;DHT22;20043;50.998;4.754;2023-11-22T09:17:08;6.60;99.90
33715;DHT22;20043;50.998;4.754;2023-11-22T09:19:34;6.80;99.90
33715;DHT22;20043;50.998;4.754;2023-11-22T09:22:07;7.10;99.90
33715;DHT22;20043;50.998;4.754;2023-11-22T09:24:33;7.30;99.90
33715;DHT22;20043;50.998;4.754;2023-11-22T09:27:02;7.60;99.90
33715;DHT22;20043;50.998;4.754;2023-11-22T09:29:30;7.80;99.90
33715;DHT22;20043;50.998;4.754;2023-11-22T09:31:56;7.90;99.90
33715;DHT22;20043;50.998;4.754;2023-11-22T09:34:22;8.00;99.90
33715;DHT22;20043;50.998;4.754;2023-11-22T09:36:47;8.20;99.90
33715;DHT22;20043;50.998;4.754;2023-11-22T09:39:13;8.30;99.90
33715;DHT22;20043;50.998;4.754;2023-11-22T09:41:38;8.40;99.90
33715;DHT22;20043;50.998;4.754;2023-11-22T09:44:05;8.40;99.90
33715;DHT22;20043;50.998;4.754;2023-11-22T09:46:31;8.50;99.90
33715;DHT22;20043;50.998;4.754;2023-11-22T09:49:00;8.50;99.90
33715;DHT22;20043;50.998;4.754;2023-11-22T09:51:33;8.40;99.90
33715;DHT22;20043;50.998;4.754;2023-11-22T09:54:04;8.50;99.90
33715;DHT22;20043;50.998;4.754;2023-11-22T09:56:35;8.50;99.90
33715;DHT22;20043;50.998;4.754;2023-11-22T09:59:04;8.50;99.90
33715;DHT22;20043;50.998;4.754;2023-11-22T10:01:33;8.50;99.90
33715;DHT22;20043;50.998;4.754;2023-11-22T10:04:02;8.20;99.90
33715;DHT22;20043;50.998;4.754;2023-11-22T10:06:31;8.10;99.90
33715;DHT22;20043;50.998;4.754;2023-11-22T10:09:02;8.20;99.90
33715;DHT22;20043;50.998;4.754;2023-11-22T10:11:33;8.20;99.90
33715;DHT22;20043;50.998;4.754;2023-11-22T10:14:01;8.10;99.90
33715;DHT22;20043;50.998;4.754;2023-11-22T10:16:27;8.00;99.90
33715;DHT22;20043;50.998;4.754;2023-11-22T10:18:52;8.20;99.90
33715;DHT22;20043;50.998;4.754;2023-11-22T10:21:28;8.20;99.90
33715;DHT22;20043;50.998;4.754;2023-11-22T10:23:57;8.30;99.90
33715;DHT22;20043;50.998;4.754;2023-11-22T10:26:23;8.30;99.90
33715;DHT22;20043;50.998;4.754;2023-11-22T10:28:52;8.30;99.90
33715;DHT22;20043;50.998;4.754;2023-11-22T10:31:19;8.40;99.90
33715;DHT22;20043;50.998;4.754;2023-11-22T10:33:47;8.30;99.90
33715;DHT22;20043;50.998;4.754;2023-11-22T10:36:13;8.30;99.90
33715;DHT22;20043;50.998;4.754;2023-11-22T10:38:40;8.30;99.90
33715;DHT22;20043;50.998;4.754;2023-11-22T10:41:07;8.40;99.90
33715;DHT22;20043;50.998;4.754;2023-11-22T10:43:35;8.40;99.90
33715;DHT22;20043;50.998;4.754;2023-11-22T10:46:02;8.30;99.90
33715;DHT22;20043;50.998;4.754;2023-11-22T10:48:28;8.30;99.90
33715;DHT22;20043;50.998;4.754;2023-11-22T10:50:57;8.30;99.90
33715;DHT22;20043;50.998;4.754;2023-11-22T10:53:33;8.20;99.90
33715;DHT22;20043;50.998;4.754;2023-11-22T10:56:11;8.20;99.90
33715;DHT22;20043;50.998;4.754;2023-11-22T10:58:49;8.10;99.90
33715;DHT22;20043;50.998;4.754;2023-11-22T11:01:16;8.10;99.90
33715;DHT22;20043;50.998;4.754;2023-11-22T11:04:02;8.00;99.90
33715;DHT22;20043;50.998;4.754;2023-11-22T11:06:32;7.90;99.90
33715;DHT22;20043;50.998;4.754;2023-11-22T11:09:00;7.90;99.90
33715;DHT22;20043;50.998;4.754;2023-11-22T11:11:29;8.00;99.90
33715;DHT22;20043;50.998;4.754;2023-11-22T11:13:56;8.10;99.90
33715;DHT22;20043;50.998;4.754;2023-11-22T11:16:23;8.20;99.90
33715;DHT22;20043;50.998;4.754;2023-11-22T11:18:49;8.30;99.90
33715;DHT22;20043;50.998;4.754;2023-11-22T11:21:16;8.30;99.90
33715;DHT22;20043;50.998;4.754;2023-11-22T11:23:41;8.50;99.90
33715;DHT22;20043;50.998;4.754;2023-11-22T11:26:19;8.50;99.90
33715;DHT22;20043;50.998;4.754;2023-11-22T11:28:49;8.50;99.90
33715;DHT22;20043;50.998;4.754;2023-11-22T11:31:16;8.50;99.90
33715;DHT22;20043;50.998;4.754;2023-11-22T11:36:38;8.60;99.90
33715;DHT22;20043;50.998;4.754;2023-11-22T11:39:07;8.80;99.90
33715;DHT22;20043;50.998;4.754;2023-11-22T11:41:41;8.70;99.90
33715;DHT22;20043;50.998;4.754;2023-11-22T11:44:09;8.70;99.90
33715;DHT22;20043;50.998;4.754;2023-11-22T11:46:37;8.60;99.90
33715;DHT22;20043;50.998;4.754;2023-11-22T11:49:11;8.60;99.90
33715;DHT22;20043;50.998;4.754;2023-11-22T11:51:38;8.70;99.90
33715;DHT22;20043;50.998;4.754;2023-11-22T11:54:04;8.80;99.90
33715;DHT22;20043;50.998;4.754;2023-11-22T11:56:31;8.80;99.90
33715;DHT22;20043;50.998;4.754;2023-11-22T11:58:58;8.70;99.90
33715;DHT22;20043;50.998;4.754;2023-11-22T12:01:27;8.70;99.90
33715;DHT22;20043;50.998;4.754;2023-11-22T12:03:52;8.70;99.90
33715;DHT22;20043;50.998;4.754;2023-11-22T12:06:18;8.80;99.90
33715;DHT22;20043;50.998;4.754;2023-11-22T12:08:45;8.90;99.90
33715;DHT22;20043;50.998;4.754;2023-11-22T12:11:13;8.90;99.90
33715;DHT22;20043;50.998;4.754;2023-11-22T12:13:39;8.80;99.90
33715;DHT22;20043;50.998;4.754;2023-11-22T12:16:09;8.70;99.90
33715;DHT22;20043;50.998;4.754;2023-11-22T12:18:43;8.70;99.90
33715;DHT22;20043;50.998;4.754;2023-11-22T12:21:09;8.70;99.90
33715;DHT22;20043;50.998;4.754;2023-11-22T12:23:42;8.80;99.90
33715;DHT22;20043;50.998;4.754;2023-11-22T12:26:19;8.70;99.90
33715;DHT22;20043;50.998;4.754;2023-11-22T12:28:46;8.70;99.90
33715;DHT22;20043;50.998;4.754;2023-11-22T12:31:14;8.70;99.90
33715;DHT22;20043;50.998;4.754;2023-11-22T12:33:43;8.80;99.90
33715;DHT22;20043;50.998;4.754;2023-11-22T12:36:10;8.80;99.90
33715;DHT22;20043;50.998;4.754;2023-11-22T12:38:36;8.90;99.90
33715;DHT22;20043;50.998;4.754;2023-11-22T12:41:03;9.00;99.90
33715;DHT22;20043;50.998;4.754;2023-11-22T12:43:29;9.00;99.90
33715;DHT22;20043;50.998;4.754;2023-11-22T12:46:06;9.10;99.90
33715;DHT22;20043;50.998;4.754;2023-11-22T12:48:32;9.00;99.90
33715;DHT22;20043;50.998;4.754;2023-11-22T12:50:59;8.80;99.90
33715;DHT22;20043;50.998;4.754;2023-11-22T12:53:25;8.80;99.90
33715;DHT22;20043;50.998;4.754;2023-11-22T12:55:54;8.80;99.90
33715;DHT22;20043;50.998;4.754;2023-11-22T12:58:21;8.80;99.90
33715;DHT22;20043;50.998;4.754;2023-11-22T13:00:48;8.70;99.90
33715;DHT22;20043;50.998;4.754;2023-11-22T13:03:14;8.60;99.90
33715;DHT22;20043;50.998;4.754;2023-11-22T13:05:44;8.80;99.90
33715;DHT22;20043;50.998;4.754;2023-11-22T13:08:10;8.70;99.90
33715;DHT22;20043;50.998;4.754;2023-11-22T13:10:48;8.80;99.90
33715;DHT22;20043;50.998;4.754;2023-11-22T13:13:24;8.90;99.90
33715;DHT22;20043;50.998;4.754;2023-11-22T13:15:51;8.90;99.90
33715;DHT22;20043;50.998;4.754;2023-11-22T13:18:17;9.00;99.90
33715;DHT22;20043;50.998;4.754;2023-11-22T13:20:43;9.00;99.90
33715;DHT22;20043;50.998;4.754;2023-11-22T13:23:09;8.90;99.90
33715;DHT22;20043;50.998;4.754;2023-11-22T13:25:35;8.90;99.90
33715;DHT22;20043;50.998;4.754;2023-11-22T13:28:02;8.90;99.90
33715;DHT22;20043;50.998;4.754;2023-11-22T13:30:27;8.90;99.90
33715;DHT22;20043;50.998;4.754;2023-11-22T13:32:55;9.10;99.90
33715;DHT22;20043;50.998;4.754;2023-11-22T13:35:27;9.30;99.90
33715;DHT22;20043;50.998;4.754;2023-11-22T13:37:57;9.50;99.90
33715;DHT22;20043;50.998;4.754;2023-11-22T13:40:23;9.50;99.90
33715;DHT22;20043;50.998;4.754;2023-11-22T13:42:51;9.50;99.90
33715;DHT22;20043;50.998;4.754;2023-11-22T13:45:20;9.70;99.90
33715;DHT22;20043;50.998;4.754;2023-11-22T13:47:47;9.40;99.90
33715;DHT22;20043;50.998;4.754;2023-11-22T13:50:14;9.40;99.90
33715;DHT22;20043;50.998;4.754;2023-11-22T13:52:44;9.40;99.90
33715;DHT22;20043;50.998;4.754;2023-11-22T13:55:11;9.10;99.90
33715;DHT22;20043;50.998;4.754;2023-11-22T13:57:38;9.20;99.90
33715;DHT22;20043;50.998;4.754;2023-11-22T14:00:05;9.30;99.90
33715;DHT22;20043;50.998;4.754;2023-11-22T14:02:35;9.30;99.90
33715;DHT22;20043;50.998;4.754;2023-11-22T14:05:02;9.40;99.90
33715;DHT22;20043;50.998;4.754;2023-11-22T14:07:28;9.40;99.90
33715;DHT22;20043;50.998;4.754;2023-11-22T14:09:54;9.40;99.90
33715;DHT22;20043;50.998;4.754;2023-11-22T14:12:20;9.50;99.90
33715;DHT22;20043;50.998;4.754;2023-11-22T14:14:45;9.50;99.90
33715;DHT22;20043;50.998;4.754;2023-11-22T14:17:11;9.40;99.90
33715;DHT22;20043;50.998;4.754;2023-11-22T14:19:39;9.40;99.90
33715;DHT22;20043;50.998;4.754;2023-11-22T14:22:05;9.50;99.90
33715;DHT22;20043;50.998;4.754;2023-11-22T14:24:33;9.60;99.90
33715;DHT22;20043;50.998;4.754;2023-11-22T14:27:02;9.50;99.90
33715;DHT22;20043;50.998;4.754;2023-11-22T14:29:28;9.60;99.90
33715;DHT22;20043;50.998;4.754;2023-11-22T14:31:54;9.70;99.90
33715;DHT22;20043;50.998;4.754;2023-11-22T14:34:19;9.70;99.90
33715;DHT22;20043;50.998;4.754;2023-11-22T14:36:45;9.70;99.90
33715;DHT22;20043;50.998;4.754;2023-11-22T14:39:11;9.80;99.90
33715;DHT22;20043;50.998;4.754;2023-11-22T14:41:40;9.70;99.90
33715;DHT22;20043;50.998;4.754;2023-11-22T14:44:05;9.70;99.90
33715;DHT22;20043;50.998;4.754;2023-11-22T14:46:31;9.70;99.90
33715;DHT22;20043;50.998;4.754;2023-11-22T14:48:57;9.90;99.90
33715;DHT22;20043;50.998;4.754;2023-11-22T14:51:23;10.00;99.90
33715;DHT22;20043;50.998;4.754;2023-11-22T14:53:49;9.90;99.90
33715;DHT22;20043;50.998;4.754;2023-11-22T14:56:15;9.80;99.90
33715;DHT22;20043;50.998;4.754;2023-11-22T14:58:40;9.70;99.90
33715;DHT22;20043;50.998;4.754;2023-11-22T15:01:07;9.70;99.90
33715;DHT22;20043;50.998;4.754;2023-11-22T15:03:34;9.70;99.90
33715;DHT22;20043;50.998;4.754;2023-11-22T15:06:01;9.80;99.90
33715;DHT22;20043;50.998;4.754;2023-11-22T15:08:27;9.70;99.90
33715;DHT22;20043;50.998;4.754;2023-11-22T15:10:55;9.80;99.90
33715;DHT22;20043;50.998;4.754;2023-11-22T15:13:20;9.90;99.90
33715;DHT22;20043;50.998;4.754;2023-11-22T15:15:46;10.00;99.90
33715;DHT22;20043;50.998;4.754;2023-11-22T15:18:12;10.00;99.90
33715;DHT22;20043;50.998;4.754;2023-11-22T15:20:37;10.00;99.90
33715;DHT22;20043;50.998;4.754;2023-11-22T15:23:04;10.00;99.90
33715;DHT22;20043;50.998;4.754;2023-11-22T15:25:31;9.90;99.90
33715;DHT22;20043;50.998;4.754;2023-11-22T15:27:57;9.90;99.90
33715;DHT22;20043;50.998;4.754;2023-11-22T15:30:25;10.00;99.90
33715;DHT22;20043;50.998;4.754;2023-11-22T15:32:50;10.00;99.90
33715;DHT22;20043;50.998;4.754;2023-11-22T15:35:16;9.90;99.90
33715;DHT22;20043;50.998;4.754;2023-11-22T15:37:43;9.90;99.90
33715;DHT22;20043;50.998;4.754;2023-11-22T15:40:08;9.90;99.90
33715;DHT22;20043;50.998;4.754;2023-11-22T15:42:38;9.90;99.90
33715;DHT22;20043;50.998;4.754;2023-11-22T15:45:04;9.80;99.90